Terminal Aerodrome Forecast
Issued by NWS Wilmington, OH

Current Version | Previous Version | Text Only | Print | Product List | Glossary Off
Versions: 1 2 3 4 5 6 7 8 9 10 11 12 13 14 15 16 17 18 19 20 21 22 23 24 25 26 27

487
FTUS41 KILN 161132
TAFCVG
TAF
KCVG 161132Z 1612/1718 31013G20KT P6SM BKN017 OVC023
     FM161500 30008KT P6SM BKN025
      TEMPO 1615/1617 SCT025
     FM170100 36006KT P6SM SCT025 SCT250
     FM170300 VRB03KT P6SM SCT250=

USA.gov is the U.S. government's official web portal to all federal, state and local government web resources and services.